This is the latest recevied weather packets stored in our database for station/object AA4XD. If no packets are shown the sender has not sent any weather packets the latest 10 day(s).
| Time | Temp. | Humidity | Pressure | Rain* | Wind** | Luminosity | Snow |
|---|---|---|---|---|---|---|---|
| 1777748682 | 21.11° C | 93% | 1009.2 hPa | 0 mm | - | 255 W/m² | - |
| 1777748378 | 21.11° C | 93% | 1009 hPa | 0 mm | - | 318 W/m² | - |
| 1777748073 | 21.11° C | 92% | 1009 hPa | 0 mm | - | 278 W/m² | - |
| 1777747771 | 21.67° C | 92% | 1009.1 hPa | 0.51 mm | - | 187 W/m² | - |
| 1777747466 | 22.78° C | 94% | 1008.8 hPa | 0 mm | - | 147 W/m² | - |
| 1777747163 | 22.78° C | 94% | 1008.8 hPa | 0 mm | - | 80 W/m² | - |
| 1777746859 | 22.78° C | 95% | 1008.8 hPa | 0 mm | - | 265 W/m² | - |
| 1777746554 | 22.22° C | 96% | 1008.8 hPa | 0 mm | - | 292 W/m² | - |
| 1777745343 | 21.67° C | 96% | 1008.6 hPa | 0 mm | - | 189 W/m² | - |
| 1777745040 | 21.67° C | 96% | 1008.8 hPa | 0 mm | - | 158 W/m² | - |
| 1777743520 | 21.67° C | 97% | 1009 hPa | 0 mm | - | 297 W/m² | - |
| 1777742916 | 21.67° C | 97% | 1009.1 hPa | 0 mm | - | 274 W/m² | - |
| 1777739882 | 20.56° C | 96% | 1009.9 hPa | 0 mm | - | 22 W/m² | - |
| 1777739275 | 20.56° C | 96% | 1009 hPa | 0 mm | - | 86 W/m² | - |
| 1777738669 | 20.56° C | 96% | 1009.4 hPa | 1.27 mm | - | 29 W/m² | - |
| 1777738064 | 21.11° C | 95% | 1009 hPa | 23.88 mm | - | 13 W/m² | - |
| 1777737763 | 21.11° C | 94% | 1009 hPa | 31.24 mm | - | 13 W/m² | - |
| 1777736240 | 23.89° C | 80% | 1009.8 hPa | 0 mm | - | 2 W/m² | - |
| 1777735937 | 25° C | 87% | 1009.5 hPa | 0 mm | - | 4 W/m² | - |
| 1777735635 | 25° C | 87% | 1009.2 hPa | 0 mm | - | 13 W/m² | - |
| 1777735332 | 25° C | 87% | 1009.3 hPa | 0 mm | - | 30 W/m² | - |
| 1777735029 | 25° C | 86% | 1009.1 hPa | 0 mm | - | 33 W/m² | - |
| 1777734726 | 25° C | 86% | 1008.9 hPa | 0 mm | - | 22 W/m² | - |
| 1777734424 | 24.44° C | 86% | 1009.1 hPa | 0 mm | - | 22 W/m² | - |
| 1777734120 | 24.44° C | 86% | 1009 hPa | 0 mm | - | 20 W/m² | - |
* Rain latest hour (hover to see other rain measurements)
** Current wind speed in m/s (hover to see current wind gust speed)